createdAt,value
2023-03-06T00:00:21.911Z,10.17
2023-03-06T00:02:49.363Z,10.29
2023-03-06T00:05:16.509Z,10.21
2023-03-06T00:07:43.725Z,10.18
2023-03-06T00:10:13.418Z,10.23
2023-03-06T00:12:40.654Z,10.36
2023-03-06T00:15:08.250Z,10.25
2023-03-06T00:17:35.927Z,10.23
2023-03-06T00:20:03.437Z,10.36
2023-03-06T00:22:30.567Z,10.34
2023-03-06T00:24:58.012Z,10.31
2023-03-06T00:27:26.356Z,9.82
2023-03-06T00:29:57.295Z,10.32
2023-03-06T00:32:24.975Z,10.34
2023-03-06T00:34:52.598Z,10.28
2023-03-06T00:37:19.965Z,10.42
2023-03-06T00:39:47.782Z,10.23
2023-03-06T00:42:15.880Z,10.35
2023-03-06T00:44:43.091Z,10.34
2023-03-06T00:47:11.258Z,10.42
2023-03-06T00:49:38.383Z,10.41
2023-03-06T00:52:05.729Z,10.27
2023-03-06T00:54:33.172Z,10.40
2023-03-06T00:57:00.306Z,10.41
2023-03-06T00:59:30.185Z,10.26
2023-03-06T01:01:57.699Z,10.24
2023-03-06T01:04:25.380Z,10.19
2023-03-06T01:06:52.521Z,9.81
2023-03-06T01:09:19.920Z,10.04
2023-03-06T01:11:47.037Z,10.38
2023-03-06T01:14:14.245Z,10.30
2023-03-06T01:16:42.932Z,10.25
2023-03-06T01:19:10.136Z,10.27
2023-03-06T01:21:37.257Z,10.12
2023-03-06T01:24:04.758Z,10.35
2023-03-06T01:26:31.909Z,10.38
2023-03-06T01:28:59.136Z,10.30
2023-03-06T01:31:28.773Z,10.52
2023-03-06T01:33:55.998Z,10.44
2023-03-06T01:36:23.660Z,10.09
2023-03-06T01:38:51.049Z,10.19
2023-03-06T01:41:18.219Z,10.13
2023-03-06T01:43:46.153Z,10.46
2023-03-06T01:46:16.612Z,10.28
2023-03-06T01:48:44.114Z,10.05
2023-03-06T01:51:12.270Z,10.28
2023-03-06T01:53:39.669Z,10.54
2023-03-06T01:56:06.994Z,10.31
2023-03-06T01:58:34.175Z,10.44
2023-03-06T02:01:01.669Z,10.03
2023-03-06T02:03:30.098Z,10.07
2023-03-06T02:05:57.218Z,10.40
2023-03-06T02:08:24.467Z,10.28
2023-03-06T02:10:59.360Z,10.36
2023-03-06T02:13:26.615Z,10.43
2023-03-06T02:15:54.094Z,10.34
2023-03-06T02:18:21.263Z,10.40
2023-03-06T02:20:55.711Z,10.33
2023-03-06T02:23:32.426Z,10.27
2023-03-06T02:25:59.788Z,10.12
2023-03-06T02:28:27.227Z,10.36
2023-03-06T02:30:54.806Z,10.41
2023-03-06T02:33:26.508Z,10.22
2023-03-06T02:35:54.694Z,10.26
2023-03-06T02:38:24.406Z,10.20
2023-03-06T02:40:52.340Z,10.19
2023-03-06T02:43:23.854Z,10.23
2023-03-06T02:45:51.309Z,10.40
2023-03-06T02:48:19.196Z,9.97
2023-03-06T02:50:46.922Z,10.22
2023-03-06T02:53:14.615Z,10.12
2023-03-06T02:55:41.801Z,10.06
2023-03-06T02:58:09.269Z,10.32
2023-03-06T03:00:36.500Z,9.97
2023-03-06T03:03:04.352Z,10.29
2023-03-06T03:05:31.745Z,10.41
2023-03-06T03:07:59.541Z,10.33
2023-03-06T03:10:27.725Z,10.24
2023-03-06T03:12:55.227Z,9.67
2023-03-06T03:15:23.698Z,10.10
2023-03-06T03:17:50.899Z,10.07
2023-03-06T03:20:19.376Z,9.69
2023-03-06T03:22:49.644Z,9.65
2023-03-06T03:25:16.876Z,10.20
2023-03-06T03:27:44.821Z,10.28
2023-03-06T03:30:12.643Z,10.31
2023-03-06T03:32:39.964Z,10.19
2023-03-06T03:35:07.875Z,9.63
2023-03-06T03:37:35.925Z,9.73
2023-03-06T03:40:05.035Z,9.99
2023-03-06T03:42:32.603Z,9.97
2023-03-06T03:44:59.905Z,10.11
2023-03-06T03:47:27.721Z,10.07
2023-03-06T03:49:55.313Z,9.73
2023-03-06T03:52:22.770Z,10.10
2023-03-06T03:54:49.897Z,10.23
2023-03-06T03:57:17.417Z,10.22
2023-03-06T03:59:45.348Z,10.06
2023-03-06T04:02:13.385Z,10.17
2023-03-06T04:04:42.034Z,10.30
2023-03-06T04:07:09.786Z,10.26
2023-03-06T04:09:37.252Z,10.30
2023-03-06T04:12:05.093Z,10.10
2023-03-06T04:14:32.635Z,10.22
2023-03-06T04:17:00.225Z,9.88
2023-03-06T04:19:27.675Z,10.06
2023-03-06T04:21:55.121Z,10.02
2023-03-06T04:24:22.362Z,9.99
2023-03-06T04:26:49.814Z,10.00
2023-03-06T04:29:17.404Z,10.05
2023-03-06T04:31:44.765Z,10.14
2023-03-06T04:34:12.262Z,10.13
2023-03-06T04:36:45.105Z,9.58
2023-03-06T04:39:13.102Z,9.93
2023-03-06T04:41:40.754Z,10.12
2023-03-06T04:44:08.193Z,10.01
2023-03-06T04:46:35.917Z,10.10
2023-03-06T04:49:03.805Z,10.14
2023-03-06T04:51:31.012Z,10.10
2023-03-06T04:53:58.460Z,10.16
2023-03-06T04:56:25.577Z,10.32
2023-03-06T04:58:52.741Z,9.95
2023-03-06T05:01:20.193Z,10.15
2023-03-06T05:03:47.369Z,10.14
2023-03-06T05:06:14.443Z,10.33
2023-03-06T05:08:42.067Z,10.38
2023-03-06T05:11:09.269Z,10.37
2023-03-06T05:13:36.385Z,10.10
2023-03-06T05:16:04.419Z,10.15
2023-03-06T05:18:32.092Z,10.35
2023-03-06T05:21:00.116Z,10.45
2023-03-06T05:23:28.175Z,10.45
2023-03-06T05:25:55.448Z,10.45
2023-03-06T05:28:22.682Z,10.41
2023-03-06T05:30:50.130Z,10.41
2023-03-06T05:33:17.355Z,10.39
2023-03-06T05:35:45.203Z,10.28
2023-03-06T05:38:12.668Z,10.41
2023-03-06T05:40:40.767Z,10.14
2023-03-06T05:43:08.279Z,10.21
2023-03-06T05:45:35.848Z,10.24
2023-03-06T05:48:03.167Z,10.49
2023-03-06T05:50:30.354Z,10.70
2023-03-06T05:52:57.795Z,10.54
2023-03-06T05:55:25.049Z,10.31
2023-03-06T05:57:52.242Z,10.37
2023-03-06T06:00:20.194Z,10.65
2023-03-06T06:02:47.587Z,10.55
2023-03-06T06:05:14.775Z,10.72
2023-03-06T06:07:41.919Z,10.68
2023-03-06T06:10:10.635Z,10.29
2023-03-06T06:12:37.934Z,10.56
2023-03-06T06:15:06.588Z,10.60
2023-03-06T06:17:34.015Z,10.55
2023-03-06T06:20:01.137Z,10.39
2023-03-06T06:22:28.335Z,10.45
2023-03-06T06:24:55.747Z,10.42
2023-03-06T06:27:22.895Z,10.24
2023-03-06T06:29:50.612Z,10.16
2023-03-06T06:32:18.087Z,10.21
2023-03-06T06:34:45.264Z,10.55
2023-03-06T06:37:12.381Z,10.63
2023-03-06T06:39:40.172Z,10.32
2023-03-06T06:42:28.529Z,10.56
2023-03-06T06:44:56.018Z,10.63
2023-03-06T06:47:25.201Z,10.53
2023-03-06T06:49:53.471Z,10.55
2023-03-06T06:52:21.056Z,10.70
2023-03-06T06:54:48.224Z,10.89
2023-03-06T06:57:15.723Z,10.70
2023-03-06T06:59:43.155Z,10.49
2023-03-06T07:02:13.694Z,10.70
2023-03-06T07:04:49.347Z,10.44
2023-03-06T07:07:28.015Z,10.68
2023-03-06T07:09:55.296Z,11.07
2023-03-06T07:12:22.459Z,11.00
2023-03-06T07:14:49.903Z,10.94
2023-03-06T07:17:17.079Z,11.03
2023-03-06T07:19:44.240Z,11.10
2023-03-06T07:22:11.621Z,11.07
2023-03-06T07:24:38.794Z,11.22
2023-03-06T07:27:06.214Z,11.16
2023-03-06T07:29:34.558Z,11.15
2023-03-06T07:32:01.845Z,11.16
2023-03-06T07:34:29.134Z,11.19
2023-03-06T07:36:56.560Z,10.76
2023-03-06T07:39:23.770Z,11.11
2023-03-06T07:41:52.215Z,11.24
2023-03-06T07:44:19.675Z,11.18
2023-03-06T07:46:46.884Z,11.13
2023-03-06T07:49:14.084Z,11.46
2023-03-06T07:51:41.528Z,11.50
2023-03-06T07:54:08.696Z,11.49
2023-03-06T07:56:35.850Z,11.55
2023-03-06T07:59:03.316Z,11.60
2023-03-06T08:01:30.534Z,11.48
2023-03-06T08:03:58.758Z,11.42
2023-03-06T08:06:26.608Z,11.57
2023-03-06T08:08:54.312Z,11.64
2023-03-06T08:11:23.022Z,11.55
2023-03-06T08:13:52.637Z,11.18
2023-03-06T08:16:23.617Z,10.95
2023-03-06T08:18:51.177Z,11.33
2023-03-06T08:21:19.304Z,11.50
2023-03-06T08:23:46.708Z,11.56
2023-03-06T08:26:15.308Z,11.62
2023-03-06T08:28:42.530Z,11.46
2023-03-06T08:31:10.442Z,11.32
2023-03-06T08:33:38.299Z,11.50
2023-03-06T08:36:05.487Z,11.59
2023-03-06T08:38:32.646Z,11.79
2023-03-06T08:41:00.090Z,12.05
2023-03-06T08:43:27.277Z,12.49
2023-03-06T08:45:55.566Z,12.77
2023-03-06T08:48:23.051Z,11.86
2023-03-06T08:50:50.535Z,11.81
2023-03-06T08:53:17.716Z,11.71
2023-03-06T08:55:45.158Z,12.09
2023-03-06T08:58:12.279Z,12.21
2023-03-06T09:00:39.512Z,11.75
2023-03-06T09:03:06.991Z,11.91
2023-03-06T09:05:34.286Z,11.95
2023-03-06T09:08:01.532Z,12.34
2023-03-06T09:10:29.101Z,12.18
2023-03-06T09:12:56.285Z,12.26
2023-03-06T09:15:23.790Z,11.96
2023-03-06T09:17:51.615Z,11.15
2023-03-06T09:20:19.026Z,12.02
2023-03-06T09:22:46.182Z,11.70
2023-03-06T09:25:14.298Z,12.14
2023-03-06T09:27:41.611Z,12.73
2023-03-06T09:30:09.055Z,11.86
2023-03-06T09:32:36.565Z,11.69
2023-03-06T09:35:03.911Z,11.92
2023-03-06T09:37:31.106Z,11.23
2023-03-06T09:39:58.503Z,11.09
2023-03-06T09:42:25.633Z,11.24
2023-03-06T09:44:56.475Z,11.31
2023-03-06T09:47:42.690Z,9.83
2023-03-06T09:50:19.307Z,10.59
2023-03-06T09:52:59.566Z,10.45
2023-03-06T09:55:27.354Z,10.77
2023-03-06T09:57:55.975Z,9.81
2023-03-06T10:00:34.290Z,10.77
2023-03-06T10:03:20.376Z,10.20
2023-03-06T10:05:49.312Z,9.93
2023-03-06T10:08:22.841Z,9.61
2023-03-06T10:10:49.986Z,9.59
2023-03-06T10:13:36.152Z,9.74
2023-03-06T10:16:06.265Z,9.06
2023-03-06T10:18:38.341Z,9.30
2023-03-06T10:21:18.752Z,9.49
2023-03-06T10:23:54.697Z,8.82
2023-03-06T10:26:36.830Z,9.23
2023-03-06T10:29:13.416Z,9.62
2023-03-06T10:31:41.162Z,9.64
2023-03-06T10:34:14.319Z,10.70
2023-03-06T10:36:41.447Z,10.06
2023-03-06T10:39:16.201Z,8.98
2023-03-06T10:41:44.724Z,9.22
2023-03-06T10:44:12.673Z,8.62
2023-03-06T10:46:46.930Z,9.62
2023-03-06T10:49:14.401Z,9.35
2023-03-06T10:51:43.196Z,8.90
2023-03-06T10:54:13.315Z,8.60
2023-03-06T10:56:44.025Z,8.72
2023-03-06T10:59:12.480Z,8.67
2023-03-06T11:01:40.390Z,8.54
2023-03-06T11:04:23.464Z,8.49
2023-03-06T11:07:09.546Z,9.15
2023-03-06T11:09:37.011Z,9.79
2023-03-06T11:12:17.638Z,9.39
2023-03-06T11:14:45.074Z,9.03
2023-03-06T11:17:28.593Z,9.91
2023-03-06T11:20:14.449Z,9.19
2023-03-06T11:22:41.578Z,9.77
2023-03-06T11:25:10.134Z,9.90
2023-03-06T11:27:38.183Z,8.92
2023-03-06T11:30:06.190Z,8.98
2023-03-06T11:32:38.263Z,8.98
2023-03-06T11:35:25.871Z,8.92
2023-03-06T11:37:54.496Z,9.54
2023-03-06T11:40:24.390Z,9.59
2023-03-06T11:42:56.445Z,9.27
2023-03-06T11:45:25.287Z,8.49
2023-03-06T11:48:10.597Z,9.76
2023-03-06T11:50:39.258Z,9.01
2023-03-06T11:53:07.150Z,9.98
2023-03-06T11:55:40.348Z,9.44
2023-03-06T11:58:07.785Z,8.79
2023-03-06T12:00:37.715Z,9.74
2023-03-06T12:03:22.205Z,9.79
2023-03-06T12:05:54.879Z,10.45
2023-03-06T12:08:26.309Z,10.43
2023-03-06T12:11:05.404Z,9.86
2023-03-06T12:13:36.003Z,9.83
2023-03-06T12:16:23.033Z,9.27
2023-03-06T12:18:52.590Z,10.05
2023-03-06T12:21:19.654Z,9.84
2023-03-06T12:24:05.601Z,10.57
2023-03-06T12:26:35.793Z,10.80
2023-03-06T12:29:06.104Z,10.62
2023-03-06T12:31:40.096Z,10.59
2023-03-06T12:34:43.085Z,10.95
2023-03-06T12:37:13.240Z,10.95
2023-03-06T12:39:46.371Z,11.39
2023-03-06T12:42:22.898Z,10.12
2023-03-06T12:45:03.036Z,9.29
2023-03-06T12:47:30.917Z,8.99
2023-03-06T12:49:59.585Z,9.83
2023-03-06T12:52:30.273Z,9.88
2023-03-06T12:55:01.571Z,10.04
2023-03-06T12:57:29.638Z,9.78
2023-03-06T12:59:56.841Z,9.89
2023-03-06T13:02:33.249Z,9.98
2023-03-06T13:05:14.910Z,9.90
2023-03-06T13:07:45.308Z,9.70
2023-03-06T13:10:25.584Z,9.82
2023-03-06T13:13:19.317Z,8.66
2023-03-06T13:15:47.049Z,9.56
2023-03-06T13:18:23.889Z,9.48
2023-03-06T13:20:57.563Z,10.18
2023-03-06T13:23:34.525Z,9.24
2023-03-06T13:26:05.517Z,10.54
2023-03-06T13:28:39.976Z,10.71
2023-03-06T13:31:12.577Z,10.03
2023-03-06T13:33:45.640Z,11.02
2023-03-06T13:36:24.873Z,10.94
2023-03-06T13:38:52.262Z,10.49
2023-03-06T13:41:22.158Z,10.44
2023-03-06T13:43:49.971Z,11.48
2023-03-06T13:46:26.505Z,10.99
2023-03-06T13:49:05.986Z,11.69
2023-03-06T13:51:37.352Z,11.24
2023-03-06T13:54:20.299Z,11.27
2023-03-06T13:57:04.333Z,11.56
2023-03-06T13:59:41.392Z,11.42
2023-03-06T14:02:27.823Z,11.25
2023-03-06T14:04:58.620Z,11.13
2023-03-06T14:07:25.800Z,10.35
2023-03-06T14:10:12.013Z,10.12
2023-03-06T14:12:42.460Z,10.31
2023-03-06T14:15:20.554Z,10.28
2023-03-06T14:17:49.873Z,10.54
2023-03-06T14:20:18.232Z,9.97
2023-03-06T14:22:45.352Z,10.01
2023-03-06T14:25:12.736Z,10.44
2023-03-06T14:27:42.217Z,10.54
2023-03-06T14:30:13.480Z,10.09
2023-03-06T14:32:41.084Z,10.76
2023-03-06T14:35:18.990Z,10.67
2023-03-06T14:37:47.843Z,10.59
2023-03-06T14:40:17.978Z,9.83
2023-03-06T14:42:45.160Z,10.54
2023-03-06T14:45:17.047Z,10.63
2023-03-06T14:47:44.662Z,10.65
2023-03-06T14:50:30.945Z,10.95
2023-03-06T14:53:04.286Z,11.07
2023-03-06T14:55:32.525Z,10.23
2023-03-06T14:58:01.436Z,11.05
2023-03-06T15:00:36.395Z,10.52
2023-03-06T15:03:05.348Z,10.24
2023-03-06T15:05:32.551Z,10.00
2023-03-06T15:08:01.280Z,10.63
2023-03-06T15:10:30.292Z,10.59
2023-03-06T15:13:07.770Z,10.50
2023-03-06T15:15:35.170Z,10.67
2023-03-06T15:18:02.304Z,10.69
2023-03-06T15:20:42.953Z,10.78
2023-03-06T15:23:17.993Z,9.35
2023-03-06T15:26:01.103Z,10.58
2023-03-06T15:28:31.047Z,10.52
2023-03-06T15:31:02.291Z,10.64
2023-03-06T15:33:29.713Z,10.69
2023-03-06T15:36:01.957Z,10.87
2023-03-06T15:38:39.933Z,11.16
2023-03-06T15:41:07.727Z,10.99
2023-03-06T15:43:38.077Z,11.05
2023-03-06T15:46:05.880Z,11.37
2023-03-06T15:48:34.125Z,11.33
2023-03-06T15:51:01.662Z,11.35
2023-03-06T15:53:29.093Z,11.12
2023-03-06T15:55:57.333Z,11.31
2023-03-06T15:58:24.873Z,11.02
2023-03-06T16:00:52.346Z,10.40
2023-03-06T16:03:19.814Z,10.82
2023-03-06T16:05:46.980Z,11.17
2023-03-06T16:08:15.051Z,11.43
2023-03-06T16:10:42.872Z,11.64
2023-03-06T16:13:11.325Z,11.97
2023-03-06T16:15:39.583Z,12.09
2023-03-06T16:18:07.425Z,12.22
2023-03-06T16:20:34.686Z,12.02
2023-03-06T16:23:05.589Z,12.26
2023-03-06T16:25:33.051Z,12.01
2023-03-06T16:28:00.363Z,12.28
2023-03-06T16:30:28.870Z,12.28
2023-03-06T16:32:56.859Z,12.25
2023-03-06T16:35:24.123Z,12.47
2023-03-06T16:37:51.457Z,12.72
2023-03-06T16:40:45.203Z,12.86
2023-03-06T16:43:13.738Z,12.73
2023-03-06T16:45:41.752Z,12.93
2023-03-06T16:48:11.330Z,12.89
2023-03-06T16:50:39.264Z,12.95
2023-03-06T16:53:06.889Z,13.13
2023-03-06T16:55:34.018Z,13.02
2023-03-06T16:58:01.221Z,12.96
2023-03-06T17:00:31.934Z,12.97
2023-03-06T17:03:00.140Z,13.15
2023-03-06T17:05:27.720Z,13.14
2023-03-06T17:07:55.284Z,12.80
2023-03-06T17:10:26.256Z,12.90
2023-03-06T17:12:53.765Z,13.07
2023-03-06T17:15:21.212Z,12.37
2023-03-06T17:17:48.742Z,12.64
2023-03-06T17:20:16.124Z,12.15
2023-03-06T17:22:43.715Z,11.11
2023-03-06T17:25:10.917Z,11.99
2023-03-06T17:27:38.061Z,12.18
2023-03-06T17:30:05.842Z,11.92
2023-03-06T17:32:33.069Z,12.04
2023-03-06T17:35:00.426Z,12.08
2023-03-06T17:37:28.056Z,11.88
2023-03-06T17:39:55.400Z,12.10
2023-03-06T17:42:22.624Z,12.20
2023-03-06T17:44:51.013Z,12.33
2023-03-06T17:47:18.253Z,12.14
2023-03-06T17:49:45.580Z,11.83
2023-03-06T17:52:13.064Z,11.18
2023-03-06T17:54:40.504Z,11.07
2023-03-06T17:57:07.740Z,10.30
2023-03-06T17:59:35.475Z,10.61
2023-03-06T18:02:02.913Z,10.80
2023-03-06T18:04:30.444Z,11.08
2023-03-06T18:06:58.386Z,10.20
2023-03-06T18:09:25.549Z,11.17
2023-03-06T18:11:53.410Z,11.12
2023-03-06T18:14:20.669Z,10.51
2023-03-06T18:16:47.989Z,10.96
2023-03-06T18:19:16.505Z,11.06
2023-03-06T18:21:43.931Z,11.10
2023-03-06T18:24:11.424Z,10.93
2023-03-06T18:26:42.182Z,11.10
2023-03-06T18:29:09.544Z,11.24
2023-03-06T18:31:37.602Z,11.21
2023-03-06T18:34:07.155Z,11.34
2023-03-06T18:36:35.945Z,11.30
2023-03-06T18:39:03.911Z,11.37
2023-03-06T18:41:31.604Z,11.39
2023-03-06T18:43:59.900Z,11.71
2023-03-06T18:46:30.793Z,11.64
2023-03-06T18:48:58.490Z,11.69
2023-03-06T18:51:25.977Z,11.77
2023-03-06T18:53:53.170Z,11.71
2023-03-06T18:56:21.132Z,11.80
2023-03-06T18:58:48.651Z,11.16
2023-03-06T19:01:16.258Z,11.54
2023-03-06T19:03:43.995Z,11.42
2023-03-06T19:06:12.514Z,11.37
2023-03-06T19:08:40.043Z,11.54
2023-03-06T19:11:09.099Z,11.58
2023-03-06T19:13:36.484Z,11.64
2023-03-06T19:16:04.232Z,11.62
2023-03-06T19:18:31.888Z,11.41
2023-03-06T19:21:18.577Z,11.30
2023-03-06T19:23:46.291Z,10.82
2023-03-06T19:26:13.713Z,10.93
2023-03-06T19:28:41.745Z,11.24
2023-03-06T19:31:09.272Z,11.32
2023-03-06T19:33:39.464Z,11.39
2023-03-06T19:36:07.730Z,11.55
2023-03-06T19:38:35.291Z,11.70
2023-03-06T19:41:02.662Z,11.62
2023-03-06T19:43:30.254Z,11.60
2023-03-06T19:45:57.937Z,11.35
2023-03-06T19:48:25.130Z,11.40
2023-03-06T19:50:52.482Z,11.54
2023-03-06T19:53:19.997Z,11.58
2023-03-06T19:55:47.734Z,11.63
2023-03-06T19:58:15.193Z,11.62
2023-03-06T20:00:42.948Z,11.70
2023-03-06T20:03:10.465Z,10.65
2023-03-06T20:05:39.567Z,11.34
2023-03-06T20:08:06.761Z,11.60
2023-03-06T20:10:36.296Z,10.54
2023-03-06T20:13:03.840Z,10.52
2023-03-06T20:15:31.066Z,11.07
2023-03-06T20:17:58.684Z,11.43
2023-03-06T20:20:26.024Z,11.37
2023-03-06T20:22:53.260Z,11.50
2023-03-06T20:25:20.966Z,11.11
2023-03-06T20:27:48.449Z,10.35
2023-03-06T20:30:15.707Z,10.47
2023-03-06T20:32:43.318Z,11.29
2023-03-06T20:35:10.678Z,11.40
2023-03-06T20:37:37.942Z,11.49
2023-03-06T20:40:05.976Z,11.59
2023-03-06T20:42:33.289Z,11.61
2023-03-06T20:45:00.439Z,11.51
2023-03-06T20:47:28.113Z,11.49
2023-03-06T20:49:55.748Z,11.70
2023-03-06T20:52:22.893Z,11.51
2023-03-06T20:54:50.463Z,11.48
2023-03-06T20:57:17.830Z,11.66
2023-03-06T20:59:45.376Z,11.78
2023-03-06T21:02:14.860Z,11.81
2023-03-06T21:04:42.305Z,11.80
2023-03-06T21:07:09.528Z,11.72
2023-03-06T21:09:37.896Z,11.82
2023-03-06T21:12:05.359Z,11.60
2023-03-06T21:14:32.544Z,11.60
2023-03-06T21:17:01.317Z,11.50
2023-03-06T21:19:28.563Z,11.58
2023-03-06T21:21:55.728Z,11.64
2023-03-06T21:24:23.182Z,11.75
2023-03-06T21:26:51.298Z,11.76
2023-03-06T21:29:18.493Z,11.39
2023-03-06T21:31:45.996Z,11.42
2023-03-06T21:34:13.259Z,11.57
2023-03-06T21:36:40.378Z,11.44
2023-03-06T21:39:07.845Z,11.65
2023-03-06T21:41:35.129Z,11.41
2023-03-06T21:44:03.601Z,11.55
2023-03-06T21:46:31.132Z,11.24
2023-03-06T21:48:58.289Z,11.53
2023-03-06T21:51:26.028Z,11.64
2023-03-06T21:53:53.665Z,11.56
2023-03-06T21:56:21.351Z,11.53
2023-03-06T21:58:48.529Z,11.39
2023-03-06T22:01:17.696Z,11.33
2023-03-06T22:03:45.327Z,11.22
2023-03-06T22:06:13.569Z,11.15
2023-03-06T22:08:41.079Z,11.22
2023-03-06T22:11:13.165Z,11.02
2023-03-06T22:13:40.557Z,10.68
2023-03-06T22:16:07.945Z,11.01
2023-03-06T22:18:35.414Z,10.87
2023-03-06T22:21:06.290Z,10.84
2023-03-06T22:23:33.408Z,10.77
2023-03-06T22:26:01.745Z,10.57
2023-03-06T22:28:28.915Z,10.33
2023-03-06T22:30:56.065Z,10.56
2023-03-06T22:33:23.519Z,10.63
2023-03-06T22:35:50.720Z,10.48
2023-03-06T22:38:19.137Z,10.51
2023-03-06T22:40:46.579Z,10.29
2023-03-06T22:43:13.807Z,10.10
2023-03-06T22:45:40.969Z,10.41
2023-03-06T22:48:11.163Z,10.21
2023-03-06T22:50:38.539Z,10.18
2023-03-06T22:53:05.824Z,10.14
2023-03-06T22:55:34.603Z,10.08
2023-03-06T22:58:01.792Z,9.95
2023-03-06T23:00:28.908Z,9.75
2023-03-06T23:02:56.303Z,9.91
2023-03-06T23:05:23.433Z,10.02
2023-03-06T23:07:51.356Z,10.08
2023-03-06T23:10:19.004Z,10.03
2023-03-06T23:13:04.598Z,10.10
2023-03-06T23:15:50.434Z,10.00
2023-03-06T23:18:36.828Z,10.09
2023-03-06T23:21:22.799Z,10.15
2023-03-06T23:24:08.254Z,10.14
2023-03-06T23:26:35.754Z,10.15
2023-03-06T23:29:04.267Z,10.15
2023-03-06T23:31:31.596Z,10.22
2023-03-06T23:34:00.733Z,10.12
2023-03-06T23:36:28.238Z,10.10
2023-03-06T23:38:55.420Z,10.03
2023-03-06T23:41:23.670Z,10.15
2023-03-06T23:43:51.403Z,10.02
2023-03-06T23:46:19.191Z,10.00
2023-03-06T23:48:46.699Z,10.06
2023-03-06T23:51:15.570Z,9.92
2023-03-06T23:53:43.170Z,10.07
2023-03-06T23:56:10.820Z,10.07
2023-03-06T23:58:38.224Z,10.08
